Time;durP1;ratioP1;P1;durP2;ratioP2;P2;SDS_P1;SDS_P2;PMS_P1;PMS_P2;Temp;Humidity;BMP_temperature;BMP_pressure;BME280_temperature;BME280_humidity;BME280_pressure;Samples;Min_cycle;Max_cycle;Signal;HPM_P1;HPM_P2
2023/04/19 00:00:40;;;;;;;10.75;8.30;;;12.10;99.90;;;;;;5041770;28;20032;-43
2023/04/19 00:03:07;;;;;;;10.75;8.52;;;12.10;99.90;;;;;;5041685;28;20040;-42
2023/04/19 00:05:32;;;;;;;11.82;8.80;;;12.00;99.90;;;;;;5040798;28;20110;-42
2023/04/19 00:07:58;;;;;;;11.27;8.27;;;12.00;99.90;;;;;;5042629;28;20501;-43
2023/04/19 00:10:24;;;;;;;10.30;7.95;;;12.00;99.90;;;;;;5041674;28;20032;-44
2023/04/19 00:12:53;;;;;;;10.43;8.85;;;12.00;99.90;;;;;;5041869;28;20025;-43
2023/04/19 00:15:18;;;;;;;10.77;8.18;;;12.00;99.90;;;;;;5041910;28;20017;-43
2023/04/19 00:17:44;;;;;;;9.00;8.05;;;12.00;99.90;;;;;;5042114;28;20040;-43
2023/04/19 00:20:11;;;;;;;8.55;7.50;;;12.00;99.90;;;;;;5041184;28;20017;-42
2023/04/19 00:22:37;;;;;;;9.02;7.97;;;12.00;99.90;;;;;;5041652;28;20416;-42
2023/04/19 00:25:03;;;;;;;8.50;7.50;;;12.00;99.90;;;;;;5041627;28;20025;-43
2023/04/19 00:27:29;;;;;;;10.52;8.65;;;11.90;99.90;;;;;;5041069;28;20037;-43
2023/04/19 00:29:56;;;;;;;8.70;7.75;;;11.90;99.90;;;;;;5041514;28;20092;-43
2023/04/19 00:32:21;;;;;;;11.10;8.88;;;11.90;99.90;;;;;;5040318;28;20025;-43
2023/04/19 00:34:47;;;;;;;11.38;9.75;;;11.80;99.90;;;;;;5039890;28;20041;-43
2023/04/19 00:37:12;;;;;;;10.55;8.98;;;11.80;99.90;;;;;;5040920;28;20048;-44
2023/04/19 00:39:38;;;;;;;9.55;8.07;;;11.80;99.90;;;;;;5040843;28;20036;-44
2023/04/19 00:42:04;;;;;;;10.88;8.63;;;11.70;99.90;;;;;;5041517;28;20455;-44
2023/04/19 00:44:29;;;;;;;10.70;8.95;;;11.60;99.90;;;;;;5041007;28;20024;-44
2023/04/19 00:46:55;;;;;;;10.05;8.70;;;11.60;99.90;;;;;;5039850;28;20025;-43
2023/04/19 00:49:23;;;;;;;11.68;9.50;;;11.50;99.90;;;;;;5041499;28;20185;-43
2023/04/19 00:51:49;;;;;;;10.82;9.23;;;11.50;99.90;;;;;;5041517;28;20017;-44
2023/04/19 00:54:18;;;;;;;10.68;9.07;;;11.40;99.90;;;;;;5040688;28;20040;-43
2023/04/19 00:56:44;;;;;;;10.35;8.52;;;11.40;99.90;;;;;;5041398;28;20499;-44
2023/04/19 00:59:11;;;;;;;9.88;8.02;;;11.30;99.90;;;;;;5040963;28;20136;-44
2023/04/19 01:01:37;;;;;;;12.70;8.60;;;11.30;99.90;;;;;;5040674;28;20032;-44
2023/04/19 01:04:04;;;;;;;10.30;7.72;;;11.40;99.90;;;;;;5040908;28;20559;-43
2023/04/19 01:06:30;;;;;;;9.70;8.10;;;11.40;99.90;;;;;;5040689;28;20029;-43
2023/04/19 01:08:57;;;;;;;8.57;7.18;;;11.40;99.90;;;;;;5039746;28;20107;-42
2023/04/19 01:11:26;;;;;;;12.07;8.73;;;11.30;99.90;;;;;;5040587;28;20021;-43
2023/04/19 01:13:51;;;;;;;10.75;8.43;;;11.30;99.90;;;;;;5040815;28;20035;-43
2023/04/19 01:16:17;;;;;;;9.93;8.38;;;11.30;99.90;;;;;;5040143;28;20394;-43
2023/04/19 01:18:43;;;;;;;10.55;8.45;;;11.30;99.90;;;;;;5040639;28;20095;-43
2023/04/19 01:21:09;;;;;;;9.63;7.60;;;11.20;99.90;;;;;;5040931;28;20689;-43
2023/04/19 01:23:41;;;;;;;10.52;7.63;;;11.20;99.90;;;;;;5036254;28;20017;-44
2023/04/19 01:26:07;;;;;;;11.20;8.93;;;11.20;99.90;;;;;;5040538;28;20145;-43
2023/04/19 01:28:32;;;;;;;11.48;8.75;;;11.20;99.90;;;;;;5039799;28;20127;-43
2023/04/19 01:31:01;;;;;;;10.57;8.15;;;11.10;99.90;;;;;;5041086;28;20916;-42
2023/04/19 01:33:27;;;;;;;10.07;8.48;;;11.10;99.90;;;;;;5040277;28;20016;-44
2023/04/19 01:35:52;;;;;;;10.48;8.93;;;11.10;99.90;;;;;;5040847;28;20476;-42
2023/04/19 01:38:18;;;;;;;10.48;8.60;;;11.00;99.90;;;;;;5040232;28;20021;-43
2023/04/19 01:40:44;;;;;;;10.80;8.52;;;11.00;99.90;;;;;;5039337;28;20071;-43
2023/04/19 01:43:13;;;;;;;8.48;7.45;;;11.00;99.90;;;;;;5038403;28;20124;-42
2023/04/19 01:45:38;;;;;;;9.27;7.75;;;11.00;99.90;;;;;;5039476;28;20043;-43
2023/04/19 01:48:04;;;;;;;10.95;7.70;;;10.90;99.90;;;;;;5039515;28;20053;-42
2023/04/19 01:50:30;;;;;;;11.93;8.35;;;10.90;99.90;;;;;;5039564;28;20060;-43
2023/04/19 01:52:56;;;;;;;11.38;8.27;;;10.90;99.90;;;;;;5040148;28;20130;-44
2023/04/19 01:55:22;;;;;;;9.65;7.68;;;10.90;99.90;;;;;;5040656;28;20025;-44
2023/04/19 01:57:47;;;;;;;12.43;8.35;;;10.80;99.90;;;;;;5039813;28;20068;-43
2023/04/19 02:00:14;;;;;;;15.07;9.18;;;10.80;99.90;;;;;;5040815;28;20021;-45
2023/04/19 02:02:42;;;;;;;9.50;6.97;;;10.80;99.90;;;;;;5039426;28;20857;-44
2023/04/19 02:05:08;;;;;;;9.57;7.85;;;10.70;99.90;;;;;;5039658;28;20487;-42
2023/04/19 02:07:34;;;;;;;10.70;8.27;;;10.70;99.90;;;;;;5040064;28;20033;-43
2023/04/19 02:10:00;;;;;;;9.60;8.60;;;10.70;99.90;;;;;;5040492;28;20045;-43
2023/04/19 02:12:29;;;;;;;10.38;7.90;;;10.70;99.90;;;;;;5039781;28;20079;-42
2023/04/19 02:14:56;;;;;;;9.48;7.93;;;10.60;99.90;;;;;;5039956;28;20063;-43
2023/04/19 02:17:22;;;;;;;9.45;6.90;;;10.60;99.90;;;;;;5040375;28;20063;-43
2023/04/19 02:19:48;;;;;;;11.18;7.70;;;10.60;99.90;;;;;;5039066;28;20037;-43
2023/04/19 02:22:16;;;;;;;8.52;7.13;;;10.60;99.90;;;;;;5043916;28;20033;-44
2023/04/19 02:24:41;;;;;;;7.90;6.72;;;10.60;99.90;;;;;;5043659;28;20024;-43
2023/04/19 02:27:07;;;;;;;9.20;7.05;;;10.60;99.90;;;;;;5043883;28;20033;-42
2023/04/19 02:29:32;;;;;;;11.10;7.75;;;10.60;99.90;;;;;;5043829;28;20037;-43
2023/04/19 02:32:04;;;;;;;9.25;7.38;;;10.50;99.90;;;;;;5043291;28;20020;-43
2023/04/19 02:34:30;;;;;;;8.35;7.35;;;10.60;99.90;;;;;;5043572;28;20021;-42
2023/04/19 02:36:56;;;;;;;9.50;6.45;;;10.50;99.90;;;;;;5043932;28;20083;-43
2023/04/19 02:39:21;;;;;;;8.05;6.15;;;10.50;99.90;;;;;;5043619;28;20455;-43
2023/04/19 02:41:48;;;;;;;9.60;7.60;;;10.60;99.90;;;;;;5043073;28;20045;-44
2023/04/19 02:44:13;;;;;;;9.45;7.13;;;10.60;99.90;;;;;;5043766;28;20025;-43
2023/04/19 02:46:39;;;;;;;8.95;6.90;;;10.70;99.90;;;;;;5043340;28;20044;-44
2023/04/19 02:49:04;;;;;;;8.68;7.03;;;10.80;99.90;;;;;;5042254;28;20069;-43
2023/04/19 02:51:30;;;;;;;7.70;6.80;;;10.80;99.90;;;;;;5042368;28;20017;-44
2023/04/19 02:53:56;;;;;;;8.05;6.47;;;10.80;99.90;;;;;;5042323;28;20354;-43
2023/04/19 02:56:21;;;;;;;7.90;6.60;;;10.90;99.90;;;;;;5042735;28;20025;-43
2023/04/19 02:58:47;;;;;;;8.63;7.00;;;10.90;99.90;;;;;;5042779;28;20098;-43
2023/04/19 03:01:12;;;;;;;7.72;6.68;;;11.00;99.90;;;;;;5043298;28;20056;-42
2023/04/19 03:03:38;;;;;;;9.10;6.45;;;11.00;99.90;;;;;;5042572;28;20028;-43
2023/04/19 03:06:03;;;;;;;8.30;5.90;;;11.00;99.90;;;;;;5043156;28;20059;-43
2023/04/19 03:08:32;;;;;;;8.23;6.93;;;11.00;99.90;;;;;;5042459;28;20029;-44
2023/04/19 03:10:57;;;;;;;7.53;6.20;;;11.00;99.90;;;;;;5043187;28;20037;-43
2023/04/19 03:13:23;;;;;;;7.97;6.75;;;11.10;99.90;;;;;;5043209;28;20036;-44
2023/04/19 03:15:49;;;;;;;9.65;7.20;;;11.10;99.90;;;;;;5041874;28;20027;-44
2023/04/19 03:18:16;;;;;;;8.35;6.70;;;11.10;99.90;;;;;;5042963;28;20064;-43
2023/04/19 03:20:41;;;;;;;10.25;7.25;;;11.10;99.90;;;;;;5042780;28;20437;-43
2023/04/19 03:23:07;;;;;;;7.63;6.03;;;11.10;99.90;;;;;;5042116;28;20031;-43
2023/04/19 03:25:32;;;;;;;6.78;6.05;;;11.10;99.90;;;;;;5042890;28;20728;-43
2023/04/19 03:27:58;;;;;;;7.40;6.40;;;11.10;99.90;;;;;;5042767;28;20033;-43
2023/04/19 03:30:23;;;;;;;7.85;6.85;;;11.10;99.90;;;;;;5042076;28;20043;-43
2023/04/19 03:32:50;;;;;;;8.82;7.43;;;11.10;99.90;;;;;;5042633;28;20080;-43
2023/04/19 03:35:25;;;;;;;9.90;6.45;;;11.10;99.90;;;;;;5043178;28;20032;-43
2023/04/19 03:37:50;;;;;;;7.53;5.95;;;11.10;99.90;;;;;;5042742;28;20029;-43
2023/04/19 03:40:16;;;;;;;7.22;6.47;;;11.10;99.90;;;;;;5043262;28;20726;-42
2023/04/19 03:42:42;;;;;;;8.25;6.90;;;11.10;99.90;;;;;;5041799;28;20034;-43
2023/04/19 03:45:08;;;;;;;7.10;6.35;;;11.10;99.90;;;;;;5042836;28;20029;-43
2023/04/19 03:47:33;;;;;;;8.07;6.90;;;11.10;99.90;;;;;;5042204;28;20052;-42
2023/04/19 03:49:59;;;;;;;9.48;6.70;;;11.00;99.90;;;;;;5041188;28;20837;-43
2023/04/19 03:52:24;;;;;;;10.43;7.40;;;11.00;99.90;;;;;;5042586;28;20464;-44
2023/04/19 03:54:50;;;;;;;7.55;6.45;;;11.00;99.90;;;;;;5042512;28;20031;-44
2023/04/19 03:57:16;;;;;;;8.20;6.45;;;11.00;99.90;;;;;;5041271;28;20035;-43
2023/04/19 03:59:42;;;;;;;8.32;6.35;;;10.90;99.90;;;;;;5041814;28;20029;-44
2023/04/19 04:02:07;;;;;;;8.65;6.40;;;10.90;99.90;;;;;;5041177;28;20017;-43
2023/04/19 04:04:33;;;;;;;8.02;6.43;;;10.90;99.90;;;;;;5040885;28;20144;-42
2023/04/19 04:06:59;;;;;;;9.57;6.85;;;10.80;99.90;;;;;;5041674;28;20029;-43
2023/04/19 04:09:24;;;;;;;7.18;6.00;;;10.70;99.90;;;;;;5041141;28;20087;-42
2023/04/19 04:11:50;;;;;;;7.22;6.25;;;10.70;99.90;;;;;;5041112;28;20025;-44
2023/04/19 04:14:15;;;;;;;11.88;6.97;;;10.60;99.90;;;;;;5041968;28;20028;-42
2023/04/19 04:16:41;;;;;;;7.43;6.35;;;10.50;99.90;;;;;;5041896;28;20068;-45
2023/04/19 04:19:06;;;;;;;7.60;6.10;;;10.50;99.90;;;;;;5041500;28;20021;-43
2023/04/19 04:21:32;;;;;;;7.65;6.07;;;10.40;99.90;;;;;;5042146;28;20033;-43
2023/04/19 04:24:00;;;;;;;8.90;6.15;;;10.40;99.90;;;;;;5041804;28;20049;-43
2023/04/19 04:26:29;;;;;;;6.88;6.18;;;10.40;99.90;;;;;;5021113;28;20029;-43
2023/04/19 04:28:55;;;;;;;9.48;6.22;;;10.30;99.90;;;;;;5035962;28;20524;-43
2023/04/19 04:31:21;;;;;;;7.18;5.60;;;10.30;99.90;;;;;;5040495;28;20491;-43
2023/04/19 04:33:47;;;;;;;7.80;5.97;;;10.20;99.90;;;;;;5041578;28;20020;-43
2023/04/19 04:36:15;;;;;;;6.72;5.47;;;10.20;99.90;;;;;;5041939;28;20032;-43
2023/04/19 04:38:40;;;;;;;7.45;5.80;;;10.20;99.90;;;;;;5040135;28;20875;-44
2023/04/19 04:41:06;;;;;;;6.63;5.40;;;10.10;99.90;;;;;;5041441;28;20017;-44
2023/04/19 04:43:34;;;;;;;8.35;6.50;;;10.10;99.90;;;;;;5041088;28;20040;-42
2023/04/19 04:46:00;;;;;;;6.80;5.20;;;10.00;99.90;;;;;;5040462;28;20563;-44
2023/04/19 04:48:26;;;;;;;7.63;5.95;;;10.10;99.90;;;;;;5040369;28;20057;-42
2023/04/19 04:50:51;;;;;;;6.35;5.60;;;10.00;99.90;;;;;;5041258;28;20032;-44
2023/04/19 04:53:17;;;;;;;9.05;6.45;;;10.00;99.90;;;;;;5040231;28;20028;-43
2023/04/19 04:55:42;;;;;;;8.82;6.50;;;9.90;99.90;;;;;;5040973;28;20156;-42
2023/04/19 04:58:08;;;;;;;6.75;5.95;;;9.90;99.90;;;;;;5041095;28;20770;-43
2023/04/19 05:00:33;;;;;;;7.65;6.05;;;9.90;99.90;;;;;;5039860;28;20797;-43
2023/04/19 05:03:00;;;;;;;8.82;6.72;;;9.80;99.90;;;;;;5041506;28;21006;-43
2023/04/19 05:05:26;;;;;;;7.60;5.85;;;9.80;99.90;;;;;;5040960;28;20103;-44
2023/04/19 05:07:51;;;;;;;6.70;5.90;;;9.80;99.90;;;;;;5040648;28;20029;-44
2023/04/19 05:10:17;;;;;;;9.02;6.15;;;9.80;99.90;;;;;;5041619;28;20182;-43
2023/04/19 05:12:43;;;;;;;7.18;5.78;;;9.80;99.90;;;;;;5040065;28;20055;-43
2023/04/19 05:15:08;;;;;;;7.03;6.18;;;9.70;99.90;;;;;;5039628;28;20024;-43
2023/04/19 05:17:34;;;;;;;9.32;6.35;;;9.70;99.90;;;;;;5039876;28;20021;-43
2023/04/19 05:19:59;;;;;;;8.07;6.25;;;9.70;99.90;;;;;;5039679;28;20469;-43
2023/04/19 05:22:26;;;;;;;7.95;6.07;;;9.70;99.90;;;;;;5039227;28;20029;-43
2023/04/19 05:24:51;;;;;;;9.77;7.13;;;9.70;99.90;;;;;;5040379;28;20109;-41
2023/04/19 05:27:17;;;;;;;10.93;6.85;;;9.70;99.90;;;;;;5040255;28;20583;-42
2023/04/19 05:29:42;;;;;;;8.82;6.90;;;9.60;99.90;;;;;;5039890;28;20713;-43
2023/04/19 05:32:08;;;;;;;9.25;6.57;;;9.60;99.90;;;;;;5040488;28;20032;-43
2023/04/19 05:34:35;;;;;;;16.05;7.60;;;9.70;99.90;;;;;;5040457;28;20029;-43
2023/04/19 05:37:01;;;;;;;23.13;10.10;;;9.70;99.90;;;;;;5039755;28;20476;-43
2023/04/19 05:39:27;;;;;;;14.30;7.72;;;9.70;99.90;;;;;;5057221;28;20148;-43
2023/04/19 05:41:53;;;;;;;10.95;7.07;;;9.70;99.90;;;;;;5040150;28;20685;-43
2023/04/19 05:44:18;;;;;;;7.70;6.30;;;9.70;99.90;;;;;;5037742;28;20078;-44
2023/04/19 05:46:47;;;;;;;6.32;5.45;;;9.70;99.90;;;;;;5037413;28;20439;-42
2023/04/19 05:49:12;;;;;;;8.23;5.85;;;9.70;99.90;;;;;;5019041;28;20055;-43
2023/04/19 05:51:38;;;;;;;8.27;6.05;;;9.70;99.90;;;;;;5033648;28;20024;-44
2023/04/19 05:54:04;;;;;;;8.27;5.95;;;9.70;99.90;;;;;;5039767;28;20758;-44
2023/04/19 05:56:29;;;;;;;9.32;5.90;;;9.70;99.90;;;;;;5040292;28;20487;-44
2023/04/19 05:58:55;;;;;;;8.98;6.60;;;9.70;99.90;;;;;;5044025;28;20066;-42
2023/04/19 06:01:21;;;;;;;8.52;6.30;;;9.70;99.90;;;;;;5043480;28;20469;-43
2023/04/19 06:03:51;;;;;;;7.35;5.47;;;9.70;99.90;;;;;;5042891;28;20039;-43
2023/04/19 06:06:17;;;;;;;6.18;5.43;;;9.70;99.90;;;;;;5044164;28;20029;-43
2023/04/19 06:08:46;;;;;;;6.18;5.40;;;9.70;99.90;;;;;;5043273;28;20033;-44
2023/04/19 06:11:11;;;;;;;8.27;5.70;;;9.70;99.90;;;;;;5043079;28;20017;-42
2023/04/19 06:13:37;;;;;;;7.72;6.00;;;9.70;99.90;;;;;;5043472;28;20055;-43
2023/04/19 06:16:03;;;;;;;6.63;5.30;;;9.70;99.90;;;;;;5043045;28;20024;-44
2023/04/19 06:18:28;;;;;;;8.30;5.43;;;9.80;99.90;;;;;;5041919;28;20033;-43
2023/04/19 06:20:54;;;;;;;6.68;4.72;;;9.70;99.90;;;;;;5042648;28;20024;-45
2023/04/19 06:23:19;;;;;;;9.55;5.70;;;9.70;99.90;;;;;;5043087;28;20028;-45
2023/04/19 06:25:47;;;;;;;7.85;5.63;;;9.80;99.90;;;;;;5041888;28;20025;-45
2023/04/19 06:28:13;;;;;;;8.35;5.00;;;9.80;99.90;;;;;;5042642;28;20522;-43
2023/04/19 06:30:39;;;;;;;7.65;5.13;;;9.80;99.90;;;;;;5043627;28;20028;-44
2023/04/19 06:33:04;;;;;;;6.80;5.15;;;9.80;99.90;;;;;;5042417;28;20127;-44
2023/04/19 06:35:31;;;;;;;7.97;5.43;;;9.90;99.90;;;;;;5043167;28;20115;-43
2023/04/19 06:37:57;;;;;;;6.57;4.93;;;10.00;99.90;;;;;;5042955;28;20797;-44
2023/04/19 06:40:22;;;;;;;7.05;5.38;;;10.10;99.90;;;;;;5043620;28;20127;-43
2023/04/19 06:42:48;;;;;;;5.78;4.80;;;10.10;99.90;;;;;;5043878;28;20496;-43
2023/04/19 06:45:14;;;;;;;5.80;4.53;;;10.20;99.90;;;;;;5042446;28;20532;-43
2023/04/19 06:47:40;;;;;;;5.88;4.50;;;10.20;99.90;;;;;;5042806;28;20048;-43
2023/04/19 06:50:06;;;;;;;5.30;4.68;;;10.20;99.90;;;;;;5042784;28;20411;-43
2023/04/19 06:52:32;;;;;;;6.15;5.10;;;10.30;99.90;;;;;;5042327;28;20033;-44
2023/04/19 06:54:57;;;;;;;6.18;4.40;;;10.30;99.50;;;;;;5042872;28;20021;-43
2023/04/19 06:57:23;;;;;;;6.60;5.10;;;10.30;99.20;;;;;;5043299;28;20028;-44
2023/04/19 06:59:49;;;;;;;5.85;4.75;;;10.30;98.80;;;;;;5042272;28;20539;-43
2023/04/19 07:02:18;;;;;;;7.00;4.32;;;10.30;98.90;;;;;;5044309;28;20024;-42
2023/04/19 07:04:43;;;;;;;7.35;5.10;;;10.40;98.60;;;;;;5042215;28;20060;-44
2023/04/19 07:07:09;;;;;;;5.97;3.70;;;10.40;98.30;;;;;;5041450;28;20108;-43
2023/04/19 07:09:35;;;;;;;4.63;4.03;;;10.40;97.90;;;;;;5042408;28;20024;-44
2023/04/19 07:12:00;;;;;;;4.57;3.75;;;10.50;97.60;;;;;;5042602;28;20134;-43
2023/04/19 07:14:26;;;;;;;5.10;4.15;;;10.50;97.00;;;;;;5042125;28;20068;-43
2023/04/19 07:16:52;;;;;;;4.00;3.22;;;10.50;95.90;;;;;;5042995;28;20690;-43
2023/04/19 07:19:19;;;;;;;5.60;3.53;;;10.50;95.20;;;;;;5042332;28;20029;-43
2023/04/19 07:21:45;;;;;;;7.28;3.58;;;10.60;94.90;;;;;;5042093;28;20086;-43
2023/04/19 07:24:10;;;;;;;6.18;3.47;;;10.60;94.80;;;;;;5042669;28;20744;-43
2023/04/19 07:26:36;;;;;;;3.50;3.20;;;10.60;94.70;;;;;;5043016;28;20039;-44
2023/04/19 07:29:01;;;;;;;7.55;3.60;;;10.60;94.60;;;;;;5042121;28;20033;-43
2023/04/19 07:31:27;;;;;;;5.85;3.50;;;10.70;93.80;;;;;;5041528;28;20037;-43
2023/04/19 07:33:53;;;;;;;3.80;3.15;;;10.70;93.20;;;;;;5040271;28;20017;-44
2023/04/19 07:36:20;;;;;;;3.58;2.83;;;10.70;92.90;;;;;;5040053;28;20057;-43
2023/04/19 07:38:45;;;;;;;2.90;2.47;;;10.70;92.90;;;;;;5041441;28;20148;-44
2023/04/19 07:41:11;;;;;;;4.43;3.38;;;10.70;92.80;;;;;;5038319;28;20017;-43
2023/04/19 07:43:37;;;;;;;3.78;3.20;;;10.70;92.20;;;;;;5042494;28;20488;-43
2023/04/19 07:46:12;;;;;;;5.30;3.88;;;10.80;91.80;;;;;;5042202;28;20533;-43
2023/04/19 07:48:38;;;;;;;4.43;3.10;;;10.70;91.60;;;;;;5041272;28;20259;-44
2023/04/19 07:51:18;;;;;;;4.68;3.30;;;10.70;91.60;;;;;;5041915;28;20021;-44
2023/04/19 07:53:45;;;;;;;5.60;3.35;;;10.70;91.60;;;;;;5040565;28;20749;-43
2023/04/19 07:56:11;;;;;;;4.90;3.20;;;10.70;91.50;;;;;;5041104;28;20024;-44
2023/04/19 07:58:38;;;;;;;3.30;2.63;;;10.80;90.60;;;;;;5040926;28;20035;-43
2023/04/19 08:01:04;;;;;;;3.40;2.50;;;10.80;90.90;;;;;;5041715;28;20025;-44
2023/04/19 08:03:30;;;;;;;35.60;3.50;;;10.80;90.90;;;;;;5040930;28;20040;-43
2023/04/19 08:05:56;;;;;;;3.67;2.45;;;10.90;90.50;;;;;;5041454;28;20129;-44
2023/04/19 08:08:26;;;;;;;4.75;2.67;;;10.90;90.30;;;;;;5042013;28;20514;-44
2023/04/19 08:10:54;;;;;;;3.53;2.80;;;10.90;90.20;;;;;;5041216;28;20044;-44
2023/04/19 08:13:19;;;;;;;3.88;2.75;;;11.00;90.10;;;;;;5042165;28;20029;-44
2023/04/19 08:15:45;;;;;;;2.65;2.45;;;11.00;90.20;;;;;;5041130;28;20403;-44
2023/04/19 08:18:10;;;;;;;3.22;2.47;;;11.00;90.20;;;;;;5040549;28;20753;-43
2023/04/19 08:20:36;;;;;;;3.38;2.72;;;11.10;90.00;;;;;;5041205;28;20029;-44
2023/04/19 08:23:02;;;;;;;5.13;2.75;;;11.20;89.00;;;;;;5041660;28;20024;-43
2023/04/19 08:25:28;;;;;;;4.20;2.28;;;11.20;88.50;;;;;;5040682;28;20053;-43
2023/04/19 08:27:54;;;;;;;3.05;2.40;;;11.20;88.10;;;;;;5039868;28;20116;-44
2023/04/19 08:30:20;;;;;;;3.13;2.40;;;11.20;87.60;;;;;;5041405;28;20037;-43
2023/04/19 08:32:45;;;;;;;3.35;2.10;;;11.20;86.80;;;;;;5039029;28;20035;-43
2023/04/19 08:35:13;;;;;;;3.50;2.53;;;11.20;86.20;;;;;;5041397;28;20560;-44
2023/04/19 08:37:38;;;;;;;3.80;1.98;;;11.20;86.60;;;;;;5040150;28;20021;-44
2023/04/19 08:40:05;;;;;;;4.03;2.10;;;11.30;87.40;;;;;;5040727;28;20032;-43
2023/04/19 08:42:36;;;;;;;3.55;2.20;;;11.40;87.40;;;;;;5039196;28;20039;-44
2023/04/19 08:45:05;;;;;;;2.45;1.90;;;11.40;87.00;;;;;;5040827;28;20021;-43
2023/04/19 08:47:32;;;;;;;4.93;1.85;;;11.50;86.10;;;;;;5041102;28;20550;-48
2023/04/19 08:50:00;;;;;;;2.60;1.90;;;11.50;86.00;;;;;;5041430;28;20084;-44
2023/04/19 08:52:26;;;;;;;2.25;1.80;;;11.60;86.00;;;;;;5041223;28;20448;-43
2023/04/19 08:54:54;;;;;;;1.95;1.50;;;11.60;84.80;;;;;;5040302;28;20037;-43
2023/04/19 08:57:19;;;;;;;5.05;1.55;;;11.60;84.00;;;;;;5041088;28;20036;-43
2023/04/19 08:59:48;;;;;;;3.22;1.67;;;11.60;83.10;;;;;;5040723;28;20025;-44
2023/04/19 09:02:14;;;;;;;7.15;1.70;;;11.70;83.10;;;;;;5041175;28;20030;-44
2023/04/19 09:04:40;;;;;;;2.05;1.50;;;11.70;81.00;;;;;;5041682;28;20029;-44
2023/04/19 09:07:07;;;;;;;2.92;1.42;;;11.80;80.30;;;;;;5040124;28;20128;-44
2023/04/19 09:09:34;;;;;;;1.55;1.45;;;11.70;79.30;;;;;;5040942;28;20107;-43
2023/04/19 09:12:00;;;;;;;1.67;1.25;;;11.70;80.00;;;;;;5040952;28;20105;-43
2023/04/19 09:14:27;;;;;;;4.60;1.25;;;11.80;80.30;;;;;;5040683;28;20119;-44
2023/04/19 09:16:53;;;;;;;3.03;1.15;;;11.80;81.10;;;;;;5040836;28;20029;-43
2023/04/19 09:19:18;;;;;;;2.45;1.33;;;11.90;80.10;;;;;;5039912;28;20040;-44
2023/04/19 09:21:44;;;;;;;1.83;1.40;;;11.90;80.50;;;;;;5040224;28;20037;-43
2023/04/19 09:24:10;;;;;;;2.05;1.40;;;12.00;80.90;;;;;;5039649;28;20025;-43
2023/04/19 09:26:36;;;;;;;1.95;1.70;;;12.00;79.30;;;;;;5040067;28;20020;-43
2023/04/19 09:29:04;;;;;;;2.90;1.80;;;12.00;79.30;;;;;;5039370;28;20598;-43
2023/04/19 09:31:34;;;;;;;1.90;1.70;;;12.00;79.30;;;;;;5040363;28;20021;-43
2023/04/19 09:34:14;;;;;;;1.50;1.40;;;12.00;79.70;;;;;;5039368;28;20017;-43
2023/04/19 09:36:40;;;;;;;2.35;1.60;;;12.00;80.40;;;;;;5040497;28;20060;-44
2023/04/19 09:39:05;;;;;;;1.77;1.40;;;12.00;80.70;;;;;;5039995;28;20496;-44
2023/04/19 09:41:37;;;;;;;2.83;1.50;;;12.10;80.50;;;;;;5039496;28;20086;-43
2023/04/19 09:44:11;;;;;;;2.47;1.40;;;12.10;79.90;;;;;;5041012;28;20021;-44
2023/04/19 09:46:37;;;;;;;2.42;1.88;;;12.10;79.20;;;;;;5041046;28;20021;-44
2023/04/19 09:49:22;;;;;;;1.75;1.65;;;12.10;79.50;;;;;;5038760;28;20055;-43
2023/04/19 09:51:50;;;;;;;2.70;1.60;;;12.10;78.70;;;;;;5039420;28;20121;-42
2023/04/19 09:54:18;;;;;;;2.33;1.45;;;12.10;77.20;;;;;;5040281;28;20025;-43
2023/04/19 09:56:44;;;;;;;1.92;1.50;;;12.10;77.30;;;;;;5038885;28;20107;-43
2023/04/19 09:59:11;;;;;;;2.10;1.30;;;12.10;77.50;;;;;;5039678;28;20032;-44
2023/04/19 10:01:52;;;;;;;3.15;1.58;;;12.20;78.00;;;;;;5040372;28;20032;-44
2023/04/19 10:04:22;;;;;;;2.47;1.20;;;12.20;77.50;;;;;;5040104;28;20044;-43
2023/04/19 10:06:53;;;;;;;1.67;1.45;;;12.30;76.30;;;;;;5040202;28;20041;-43
2023/04/19 10:09:22;;;;;;;3.42;1.60;;;12.30;76.10;;;;;;5040499;28;20862;-43
2023/04/19 10:11:49;;;;;;;2.08;1.60;;;12.30;76.30;;;;;;5039803;28;20110;-44
2023/04/19 10:14:17;;;;;;;2.33;1.95;;;12.40;76.60;;;;;;5040026;28;20547;-44
2023/04/19 10:16:42;;;;;;;5.03;2.10;;;12.50;75.30;;;;;;5039115;28;20054;-43
2023/04/19 10:19:11;;;;;;;1.83;1.35;;;12.60;74.90;;;;;;5039512;28;20164;-44
2023/04/19 10:21:38;;;;;;;3.20;1.60;;;12.60;74.70;;;;;;5040155;28;20025;-44
2023/04/19 10:24:04;;;;;;;3.35;1.77;;;12.70;74.10;;;;;;5039940;28;20133;-43
2023/04/19 10:27:12;;;;;;;3.53;1.88;;;12.70;73.70;;;;;;5039653;28;20029;-44
2023/04/19 10:30:00;;;;;;;2.58;1.65;;;12.70;74.00;;;;;;5039762;28;20547;-43
2023/04/19 10:32:37;;;;;;;2.90;1.52;;;12.70;73.70;;;;;;5029089;28;20102;-43
2023/04/19 10:35:25;;;;;;;2.55;1.70;;;12.70;74.20;;;;;;5039968;28;20016;-43
2023/04/19 10:38:12;;;;;;;2.20;1.70;;;12.70;74.50;;;;;;5030953;28;20111;-43
2023/04/19 10:40:50;;;;;;;2.70;1.70;;;12.80;73.70;;;;;;5039762;28;20309;-43
2023/04/19 10:43:16;;;;;;;3.88;1.95;;;12.80;73.20;;;;;;5044142;28;20043;-44
2023/04/19 10:45:42;;;;;;;2.58;2.10;;;12.80;73.20;;;;;;5043402;28;20017;-44
2023/04/19 10:48:32;;;;;;;3.63;1.75;;;12.80;73.10;;;;;;5043389;28;20049;-43
2023/04/19 10:50:57;;;;;;;3.45;2.05;;;12.80;72.40;;;;;;5043348;28;20033;-43
2023/04/19 10:53:52;;;;;;;1.83;1.73;;;12.90;72.60;;;;;;5042590;28;20035;-44
2023/04/19 10:56:22;;;;;;;3.28;1.65;;;12.90;73.40;;;;;;5043153;28;20028;-43
2023/04/19 10:59:00;;;;;;;2.17;1.80;;;12.90;73.50;;;;;;5041492;28;20056;-44
2023/04/19 11:01:45;;;;;;;3.65;2.03;;;13.00;73.40;;;;;;5042933;28;20028;-43
2023/04/19 11:04:18;;;;;;;1.85;1.75;;;13.10;72.20;;;;;;5043445;28;20029;-44
2023/04/19 11:06:50;;;;;;;2.35;1.92;;;13.20;71.20;;;;;;5042460;28;20578;-43
2023/04/19 11:09:30;;;;;;;6.65;2.35;;;13.20;70.80;;;;;;5043767;28;20810;-43
2023/04/19 11:12:01;;;;;;;3.92;2.28;;;13.20;70.80;;;;;;5042072;28;20024;-44
2023/04/19 11:14:30;;;;;;;2.67;1.85;;;13.20;70.30;;;;;;5042930;28;20024;-46
2023/04/19 11:16:55;;;;;;;2.47;2.05;;;13.30;70.90;;;;;;5043247;28;20107;-44
2023/04/19 11:19:21;;;;;;;2.15;1.60;;;13.30;71.10;;;;;;5043012;28;20751;-45
2023/04/19 11:21:47;;;;;;;3.55;2.05;;;13.40;71.40;;;;;;5042940;28;20797;-43
2023/04/19 11:24:17;;;;;;;2.10;1.90;;;13.50;69.60;;;;;;5043336;28;20036;-43
2023/04/19 11:26:43;;;;;;;3.67;2.10;;;13.60;68.60;;;;;;5041843;28;20025;-43
2023/04/19 11:29:09;;;;;;;3.85;1.90;;;13.70;68.00;;;;;;5042950;28;20043;-44
2023/04/19 11:31:35;;;;;;;2.88;1.73;;;13.70;67.50;;;;;;5043635;28;20021;-43
2023/04/19 11:34:02;;;;;;;3.08;1.98;;;13.80;66.20;;;;;;5042459;28;20376;-43
2023/04/19 11:36:27;;;;;;;2.10;1.58;;;13.80;66.40;;;;;;5042904;28;20021;-44
2023/04/19 11:38:53;;;;;;;2.33;1.83;;;13.90;66.60;;;;;;5042270;28;20033;-46
2023/04/19 11:41:19;;;;;;;2.67;1.85;;;13.90;63.80;;;;;;5042324;28;20797;-44
2023/04/19 11:43:45;;;;;;;3.38;1.85;;;14.00;62.80;;;;;;5042027;28;20534;-44
2023/04/19 11:46:12;;;;;;;3.22;2.25;;;14.10;63.40;;;;;;5042558;28;20060;-43
2023/04/19 11:48:50;;;;;;;3.10;2.40;;;14.10;62.70;;;;;;5041559;28;20077;-44
2023/04/19 11:51:15;;;;;;;2.72;2.33;;;14.10;62.70;;;;;;5042711;28;20021;-44
2023/04/19 11:53:41;;;;;;;2.47;2.20;;;14.20;62.50;;;;;;5040652;28;20035;-44
2023/04/19 11:56:08;;;;;;;2.58;2.10;;;14.20;62.80;;;;;;5041521;28;20079;-44
2023/04/19 11:58:36;;;;;;;3.13;2.10;;;14.20;62.50;;;;;;5042259;28;20073;-44
2023/04/19 12:01:09;;;;;;;4.15;2.17;;;14.20;61.80;;;;;;5042293;28;20041;-44
2023/04/19 12:04:00;;;;;;;4.05;2.25;;;14.30;61.90;;;;;;5041237;28;20025;-44
2023/04/19 12:06:30;;;;;;;3.72;2.50;;;14.30;61.90;;;;;;5041167;28;20077;-44
2023/04/19 12:08:56;;;;;;;2.75;2.33;;;14.30;61.50;;;;;;5040368;28;20151;-43
2023/04/19 12:11:25;;;;;;;3.00;2.20;;;14.40;61.40;;;;;;5041856;28;20017;-43
2023/04/19 12:14:14;;;;;;;3.65;2.28;;;14.40;60.80;;;;;;5041862;28;20539;-43
2023/04/19 12:16:40;;;;;;;2.17;2.00;;;14.50;60.60;;;;;;5041363;28;20120;-44
2023/04/19 12:19:19;;;;;;;2.55;2.05;;;14.50;60.10;;;;;;5041634;28;20017;-44
2023/04/19 12:21:45;;;;;;;3.88;2.35;;;14.50;59.90;;;;;;5041824;28;20029;-43
2023/04/19 12:24:14;;;;;;;2.78;2.28;;;14.60;59.10;;;;;;5041359;28;20029;-44
2023/04/19 12:26:55;;;;;;;3.10;2.05;;;14.60;58.40;;;;;;5041861;28;20087;-43
2023/04/19 12:29:21;;;;;;;2.58;2.00;;;14.60;58.60;;;;;;5041950;28;20446;-44
2023/04/19 12:31:47;;;;;;;4.50;2.60;;;14.60;58.70;;;;;;5041113;28;20488;-44
2023/04/19 12:34:12;;;;;;;6.28;2.30;;;14.60;58.40;;;;;;5041246;28;20027;-44
2023/04/19 12:36:38;;;;;;;4.28;2.53;;;14.70;58.70;;;;;;5040699;28;20055;-44
2023/04/19 12:39:03;;;;;;;2.85;2.00;;;14.70;59.00;;;;;;5041508;28;20060;-44
2023/04/19 12:41:30;;;;;;;3.17;2.17;;;14.70;59.30;;;;;;5041989;28;20552;-43
2023/04/19 12:43:55;;;;;;;3.00;2.40;;;14.80;59.40;;;;;;5040452;28;20037;-43
2023/04/19 12:46:21;;;;;;;6.03;2.70;;;14.80;59.30;;;;;;5041258;28;20021;-43